sensor_id;sensor_type;location;lat;lon;timestamp;pressure;altitude;pressure_sealevel;temperature;humidity
79645;BME280;69117;47.148;18.954;2023-06-10T00:01:57;100164.72;;;16.21;48.16
79645;BME280;69117;47.148;18.954;2023-06-10T00:04:59;100169.16;;;16.14;48.03
79645;BME280;69117;47.148;18.954;2023-06-10T00:08:01;100171.97;;;16.12;47.90
79645;BME280;69117;47.148;18.954;2023-06-10T00:11:08;100160.22;;;16.07;47.94
79645;BME280;69117;47.148;18.954;2023-06-10T00:14:10;100162.06;;;16.06;48.31
79645;BME280;69117;47.148;18.954;2023-06-10T00:17:11;100162.41;;;16.18;49.37
79645;BME280;69117;47.148;18.954;2023-06-10T00:20:13;100164.25;;;16.17;50.42
79645;BME280;69117;47.148;18.954;2023-06-10T00:23:15;100167.13;;;16.16;51.80
79645;BME280;69117;47.148;18.954;2023-06-10T00:26:16;100165.00;;;16.11;53.67
79645;BME280;69117;47.148;18.954;2023-06-10T00:29:18;100174.19;;;16.23;54.24
79645;BME280;69117;47.148;18.954;2023-06-10T00:32:20;100177.19;;;16.35;54.48
79645;BME280;69117;47.148;18.954;2023-06-10T00:35:22;100166.25;;;16.30;56.28
79645;BME280;69117;47.148;18.954;2023-06-10T00:38:23;100175.34;;;16.36;56.64
79645;BME280;69117;47.148;18.954;2023-06-10T00:41:25;100159.94;;;16.31;57.15
79645;BME280;69117;47.148;18.954;2023-06-10T00:44:30;100181.72;;;16.35;57.52
79645;BME280;69117;47.148;18.954;2023-06-10T00:47:32;100180.53;;;16.37;57.41
79645;BME280;69117;47.148;18.954;2023-06-10T00:50:34;100178.59;;;16.31;57.35
79645;BME280;69117;47.148;18.954;2023-06-10T00:53:40;100175.94;;;16.16;57.56
79645;BME280;69117;47.148;18.954;2023-06-10T00:56:43;100171.53;;;16.09;57.59
79645;BME280;69117;47.148;18.954;2023-06-10T00:59:48;100180.91;;;16.05;57.63
79645;BME280;69117;47.148;18.954;2023-06-10T01:02:50;100172.63;;;15.99;57.84
79645;BME280;69117;47.148;18.954;2023-06-10T01:06:01;100163.81;;;15.99;57.71
79645;BME280;69117;47.148;18.954;2023-06-10T01:09:24;100164.00;;;15.97;57.67
79645;BME280;69117;47.148;18.954;2023-06-10T01:12:34;100166.47;;;15.99;57.61
79645;BME280;69117;47.148;18.954;2023-06-10T01:15:39;100159.50;;;15.83;57.54
79645;BME280;69117;47.148;18.954;2023-06-10T01:18:41;100156.94;;;15.90;57.46
79645;BME280;69117;47.148;18.954;2023-06-10T01:21:43;100166.03;;;15.95;57.58
79645;BME280;69117;47.148;18.954;2023-06-10T01:24:50;100171.06;;;15.90;57.54
79645;BME280;69117;47.148;18.954;2023-06-10T01:27:52;100165.75;;;15.90;57.54
79645;BME280;69117;47.148;18.954;2023-06-10T01:34:10;100167.13;;;15.86;57.52
79645;BME280;69117;47.148;18.954;2023-06-10T01:37:17;100148.94;;;15.75;57.36
79645;BME280;69117;47.148;18.954;2023-06-10T01:40:20;100166.91;;;15.73;57.45
79645;BME280;69117;47.148;18.954;2023-06-10T01:43:22;100164.03;;;15.60;57.47
79645;BME280;69117;47.148;18.954;2023-06-10T01:46:23;100163.22;;;15.59;57.30
79645;BME280;69117;47.148;18.954;2023-06-10T01:49:25;100164.41;;;15.56;57.35
79645;BME280;69117;47.148;18.954;2023-06-10T01:52:27;100152.72;;;15.57;57.21
79645;BME280;69117;47.148;18.954;2023-06-10T01:55:29;100166.06;;;15.57;57.15
79645;BME280;69117;47.148;18.954;2023-06-10T01:58:31;100167.06;;;15.56;57.24
79645;BME280;69117;47.148;18.954;2023-06-10T02:01:33;100167.06;;;15.56;57.12
79645;BME280;69117;47.148;18.954;2023-06-10T02:04:35;100157.97;;;15.51;57.03
79645;BME280;69117;47.148;18.954;2023-06-10T02:07:36;100161.75;;;15.56;57.01
79645;BME280;69117;47.148;18.954;2023-06-10T02:10:39;100163.75;;;15.54;57.00
79645;BME280;69117;47.148;18.954;2023-06-10T02:13:42;100167.44;;;15.53;56.96
79645;BME280;69117;47.148;18.954;2023-06-10T02:16:43;100178.91;;;15.54;56.76
79645;BME280;69117;47.148;18.954;2023-06-10T02:19:48;100179.72;;;15.54;57.00
79645;BME280;69117;47.148;18.954;2023-06-10T02:22:54;100179.72;;;15.54;57.02
79645;BME280;69117;47.148;18.954;2023-06-10T02:25:55;100173.94;;;15.51;56.98
79645;BME280;69117;47.148;18.954;2023-06-10T02:28:57;100168.59;;;15.36;57.11
79645;BME280;69117;47.148;18.954;2023-06-10T02:31:59;100162.63;;;15.34;57.04
79645;BME280;69117;47.148;18.954;2023-06-10T02:35:00;100176.22;;;15.39;56.92
79645;BME280;69117;47.148;18.954;2023-06-10T02:38:03;100171.25;;;15.36;56.90
79645;BME280;69117;47.148;18.954;2023-06-10T02:41:05;100169.41;;;15.37;56.70
79645;BME280;69117;47.148;18.954;2023-06-10T02:44:07;100176.03;;;15.41;56.71
79645;BME280;69117;47.148;18.954;2023-06-10T02:47:08;100174.72;;;15.37;56.69
79645;BME280;69117;47.148;18.954;2023-06-10T02:50:10;100168.78;;;15.34;56.75
79645;BME280;69117;47.148;18.954;2023-06-10T02:53:11;100172.97;;;15.29;56.67
79645;BME280;69117;47.148;18.954;2023-06-10T02:56:16;100177.28;;;15.30;56.67
79645;BME280;69117;47.148;18.954;2023-06-10T02:59:18;100176.63;;;15.28;56.71
79645;BME280;69117;47.148;18.954;2023-06-10T03:02:20;100169.13;;;15.31;56.57
79645;BME280;69117;47.148;18.954;2023-06-10T03:05:23;100177.28;;;15.30;56.68
79645;BME280;69117;47.148;18.954;2023-06-10T03:08:24;100183.69;;;15.21;56.38
79645;BME280;69117;47.148;18.954;2023-06-10T03:11:26;100181.94;;;15.13;56.42
79645;BME280;69117;47.148;18.954;2023-06-10T03:14:28;100180.44;;;15.10;56.64
79645;BME280;69117;47.148;18.954;2023-06-10T03:17:29;100185.22;;;15.15;56.56
79645;BME280;69117;47.148;18.954;2023-06-10T03:20:31;100181.56;;;15.16;56.45
79645;BME280;69117;47.148;18.954;2023-06-10T03:23:33;100190.28;;;15.25;56.28
79645;BME280;69117;47.148;18.954;2023-06-10T03:26:35;100172.31;;;15.27;56.22
79645;BME280;69117;47.148;18.954;2023-06-10T03:29:37;100195.03;;;15.38;56.18
79645;BME280;69117;47.148;18.954;2023-06-10T03:32:39;100188.53;;;15.40;56.20
79645;BME280;69117;47.148;18.954;2023-06-10T03:35:42;100191.28;;;15.47;56.13
79645;BME280;69117;47.148;18.954;2023-06-10T03:38:44;100186.81;;;15.62;56.07
79645;BME280;69117;47.148;18.954;2023-06-10T03:41:46;100188.06;;;15.74;56.07
79645;BME280;69117;47.148;18.954;2023-06-10T03:44:47;100184.84;;;15.79;56.29
79645;BME280;69117;47.148;18.954;2023-06-10T03:47:49;100184.47;;;15.82;56.41
79645;BME280;69117;47.148;18.954;2023-06-10T03:50:51;100195.06;;;15.90;56.36
79645;BME280;69117;47.148;18.954;2023-06-10T03:53:53;100193.41;;;15.89;56.08
79645;BME280;69117;47.148;18.954;2023-06-10T03:56:55;100194.53;;;15.95;55.83
79645;BME280;69117;47.148;18.954;2023-06-10T03:59:57;100191.00;;;15.94;55.73
79645;BME280;69117;47.148;18.954;2023-06-10T04:02:59;100197.81;;;16.12;55.34
79645;BME280;69117;47.148;18.954;2023-06-10T04:06:01;100189.81;;;16.12;55.35
79645;BME280;69117;47.148;18.954;2023-06-10T04:09:03;100191.75;;;16.18;55.42
79645;BME280;69117;47.148;18.954;2023-06-10T04:12:06;100194.41;;;16.18;55.42
79645;BME280;69117;47.148;18.954;2023-06-10T04:15:10;100196.53;;;16.22;55.37
79645;BME280;69117;47.148;18.954;2023-06-10T04:18:12;100201.13;;;16.29;55.50
79645;BME280;69117;47.148;18.954;2023-06-10T04:21:14;100200.56;;;16.33;55.57
79645;BME280;69117;47.148;18.954;2023-06-10T04:24:16;100218.09;;;16.42;55.30
79645;BME280;69117;47.148;18.954;2023-06-10T04:27:18;100216.88;;;16.60;55.39
79645;BME280;69117;47.148;18.954;2023-06-10T04:30:20;100209.91;;;16.59;56.05
79645;BME280;69117;47.148;18.954;2023-06-10T04:33:22;100212.50;;;16.52;56.71
79645;BME280;69117;47.148;18.954;2023-06-10T04:36:23;100209.25;;;16.57;56.95
79645;BME280;69117;47.148;18.954;2023-06-10T04:39:25;100209.25;;;16.57;57.20
79645;BME280;69117;47.148;18.954;2023-06-10T04:42:27;100205.69;;;16.49;57.47
79645;BME280;69117;47.148;18.954;2023-06-10T04:45:28;100201.84;;;16.52;57.34
79645;BME280;69117;47.148;18.954;2023-06-10T04:48:31;100188.75;;;16.42;58.01
79645;BME280;69117;47.148;18.954;2023-06-10T04:51:33;100191.72;;;16.47;58.19
79645;BME280;69117;47.148;18.954;2023-06-10T04:54:35;100205.94;;;16.55;58.09
79645;BME280;69117;47.148;18.954;2023-06-10T04:57:37;100187.28;;;16.55;57.81
79645;BME280;69117;47.148;18.954;2023-06-10T05:00:38;100198.28;;;16.81;57.45
79645;BME280;69117;47.148;18.954;2023-06-10T05:03:40;100198.09;;;16.83;57.72
79645;BME280;69117;47.148;18.954;2023-06-10T05:06:42;100194.47;;;16.90;58.05
79645;BME280;69117;47.148;18.954;2023-06-10T05:09:43;100198.28;;;17.03;58.27
79645;BME280;69117;47.148;18.954;2023-06-10T05:12:46;100196.75;;;17.15;59.02
79645;BME280;69117;47.148;18.954;2023-06-10T05:15:48;100196.50;;;17.31;59.43
79645;BME280;69117;47.148;18.954;2023-06-10T05:18:49;100203.84;;;17.51;59.46
79645;BME280;69117;47.148;18.954;2023-06-10T05:21:52;100200.13;;;17.73;59.63
79645;BME280;69117;47.148;18.954;2023-06-10T05:24:53;100199.88;;;17.68;59.71
79645;BME280;69117;47.148;18.954;2023-06-10T05:27:55;100198.16;;;17.60;59.60
79645;BME280;69117;47.148;18.954;2023-06-10T05:30:57;100207.47;;;17.93;59.96
79645;BME280;69117;47.148;18.954;2023-06-10T05:33:58;100197.22;;;18.31;58.42
79645;BME280;69117;47.148;18.954;2023-06-10T05:37:00;100201.22;;;18.55;57.60
79645;BME280;69117;47.148;18.954;2023-06-10T05:40:02;100190.00;;;18.80;57.57
79645;BME280;69117;47.148;18.954;2023-06-10T05:43:05;100191.06;;;18.92;56.88
79645;BME280;69117;47.148;18.954;2023-06-10T05:46:07;100203.22;;;19.14;57.25
79645;BME280;69117;47.148;18.954;2023-06-10T05:49:09;100212.13;;;19.35;60.41
79645;BME280;69117;47.148;18.954;2023-06-10T05:52:10;100218.69;;;19.26;61.33
79645;BME280;69117;47.148;18.954;2023-06-10T05:55:12;100215.63;;;19.15;63.48
79645;BME280;69117;47.148;18.954;2023-06-10T05:58:14;100213.13;;;19.27;64.34
79645;BME280;69117;47.148;18.954;2023-06-10T06:01:16;100206.16;;;19.53;67.24
79645;BME280;69117;47.148;18.954;2023-06-10T06:04:17;100215.00;;;19.47;68.08
79645;BME280;69117;47.148;18.954;2023-06-10T06:07:19;100208.59;;;19.54;70.23
79645;BME280;69117;47.148;18.954;2023-06-10T06:10:22;100218.94;;;19.64;72.92
79645;BME280;69117;47.148;18.954;2023-06-10T06:13:24;100215.63;;;19.95;73.87
79645;BME280;69117;47.148;18.954;2023-06-10T06:16:25;100221.75;;;20.16;75.19
79645;BME280;69117;47.148;18.954;2023-06-10T06:19:27;100220.25;;;20.33;76.29
79645;BME280;69117;47.148;18.954;2023-06-10T06:22:29;100220.63;;;20.43;77.83
79645;BME280;69117;47.148;18.954;2023-06-10T06:25:30;100220.41;;;20.58;81.18
79645;BME280;69117;47.148;18.954;2023-06-10T06:28:32;100212.94;;;20.60;84.31
79645;BME280;69117;47.148;18.954;2023-06-10T06:31:34;100221.09;;;20.85;85.03
79645;BME280;69117;47.148;18.954;2023-06-10T06:34:35;100226.16;;;20.62;88.23
79645;BME280;69117;47.148;18.954;2023-06-10T06:37:37;100233.94;;;20.05;86.44
79645;BME280;69117;47.148;18.954;2023-06-10T06:40:39;100223.00;;;20.00;85.73
79645;BME280;69117;47.148;18.954;2023-06-10T06:43:40;100229.00;;;20.08;85.00
79645;BME280;69117;47.148;18.954;2023-06-10T06:46:43;100219.50;;;20.12;85.68
79645;BME280;69117;47.148;18.954;2023-06-10T06:49:48;100225.72;;;20.06;87.72
79645;BME280;69117;47.148;18.954;2023-06-10T06:52:50;100218.59;;;20.32;87.39
79645;BME280;69117;47.148;18.954;2023-06-10T06:55:51;100218.41;;;20.85;90.19
79645;BME280;69117;47.148;18.954;2023-06-10T06:58:53;100229.81;;;21.12;92.31
79645;BME280;69117;47.148;18.954;2023-06-10T07:01:58;100231.75;;;21.62;99.05
79645;BME280;69117;47.148;18.954;2023-06-10T07:05:02;100226.38;;;22.05;99.01
79645;BME280;69117;47.148;18.954;2023-06-10T07:08:05;100217.44;;;22.48;100.00
79645;BME280;69117;47.148;18.954;2023-06-10T07:11:06;100219.22;;;22.17;100.00
79645;BME280;69117;47.148;18.954;2023-06-10T07:14:08;100219.94;;;21.88;100.00
79645;BME280;69117;47.148;18.954;2023-06-10T07:17:10;100231.34;;;21.83;100.00
79645;BME280;69117;47.148;18.954;2023-06-10T07:20:12;100232.38;;;21.00;100.00
79645;BME280;69117;47.148;18.954;2023-06-10T07:23:14;100231.19;;;21.53;100.00
79645;BME280;69117;47.148;18.954;2023-06-10T07:26:16;100225.22;;;22.38;100.00
79645;BME280;69117;47.148;18.954;2023-06-10T07:29:18;100227.78;;;23.12;100.00
79645;BME280;69117;47.148;18.954;2023-06-10T07:32:19;100229.09;;;23.74;100.00
79645;BME280;69117;47.148;18.954;2023-06-10T07:35:25;100228.97;;;24.05;100.00
79645;BME280;69117;47.148;18.954;2023-06-10T07:38:26;100228.94;;;24.16;100.00
79645;BME280;69117;47.148;18.954;2023-06-10T07:41:28;100228.22;;;24.85;100.00
79645;BME280;69117;47.148;18.954;2023-06-10T07:44:30;100226.75;;;25.23;100.00
79645;BME280;69117;47.148;18.954;2023-06-10T07:47:33;100227.47;;;24.61;71.37
79645;BME280;69117;47.148;18.954;2023-06-10T07:50:35;100231.03;;;24.38;73.57
79645;BME280;69117;47.148;18.954;2023-06-10T07:53:37;100228.31;;;24.50;71.99
79645;BME280;69117;47.148;18.954;2023-06-10T07:56:39;100224.84;;;24.66;71.22
79645;BME280;69117;47.148;18.954;2023-06-10T07:59:40;100226.22;;;23.34;75.58
79645;BME280;69117;47.148;18.954;2023-06-10T08:02:42;100227.97;;;23.40;78.80
79645;BME280;69117;47.148;18.954;2023-06-10T08:05:44;100225.81;;;22.89;79.85
79645;BME280;69117;47.148;18.954;2023-06-10T08:08:46;100227.72;;;23.18;79.26
79645;BME280;69117;47.148;18.954;2023-06-10T08:11:47;100217.81;;;23.89;76.20
79645;BME280;69117;47.148;18.954;2023-06-10T08:14:49;100216.22;;;24.40;73.02
79645;BME280;69117;47.148;18.954;2023-06-10T08:17:51;100212.38;;;24.77;73.13
79645;BME280;69117;47.148;18.954;2023-06-10T08:20:53;100219.41;;;24.49;72.04
79645;BME280;69117;47.148;18.954;2023-06-10T08:23:55;100212.22;;;23.91;74.94
79645;BME280;69117;47.148;18.954;2023-06-10T08:26:57;100219.44;;;23.67;75.36
79645;BME280;69117;47.148;18.954;2023-06-10T08:29:59;100222.19;;;23.13;76.11
79645;BME280;69117;47.148;18.954;2023-06-10T08:33:02;100217.41;;;23.39;77.65
79645;BME280;69117;47.148;18.954;2023-06-10T08:36:04;100214.66;;;23.57;74.73
79645;BME280;69117;47.148;18.954;2023-06-10T08:39:05;100225.81;;;22.40;77.08
79645;BME280;69117;47.148;18.954;2023-06-10T08:45:18;100207.50;;;23.98;71.90
79645;BME280;69117;47.148;18.954;2023-06-10T08:48:20;100207.50;;;24.90;71.32
79645;BME280;69117;47.148;18.954;2023-06-10T08:51:23;100196.50;;;24.52;69.26
79645;BME280;69117;47.148;18.954;2023-06-10T08:54:32;100185.72;;;24.68;69.74
79645;BME280;69117;47.148;18.954;2023-06-10T08:57:36;100193.00;;;25.42;68.28
79645;BME280;69117;47.148;18.954;2023-06-10T09:00:38;100189.97;;;24.64;69.25
79645;BME280;69117;47.148;18.954;2023-06-10T09:03:41;100186.88;;;24.44;70.89
79645;BME280;69117;47.148;18.954;2023-06-10T09:06:43;100189.16;;;24.64;68.90
79645;BME280;69117;47.148;18.954;2023-06-10T09:09:46;100190.66;;;25.68;67.68
79645;BME280;69117;47.148;18.954;2023-06-10T09:12:47;100184.84;;;25.59;64.68
79645;BME280;69117;47.148;18.954;2023-06-10T09:15:49;100183.59;;;26.22;62.21
79645;BME280;69117;47.148;18.954;2023-06-10T09:18:52;100176.38;;;26.11;65.10
79645;BME280;69117;47.148;18.954;2023-06-10T09:21:56;100176.41;;;26.33;63.10
79645;BME280;69117;47.148;18.954;2023-06-10T09:25:05;100178.66;;;26.41;61.88
79645;BME280;69117;47.148;18.954;2023-06-10T09:28:15;100177.53;;;26.37;59.03
79645;BME280;69117;47.148;18.954;2023-06-10T09:31:17;100184.19;;;26.08;62.07
79645;BME280;69117;47.148;18.954;2023-06-10T09:34:25;100168.06;;;26.62;60.12
79645;BME280;69117;47.148;18.954;2023-06-10T09:37:27;100170.19;;;27.14;59.60
79645;BME280;69117;47.148;18.954;2023-06-10T09:40:29;100178.72;;;25.64;62.00
79645;BME280;69117;47.148;18.954;2023-06-10T09:43:44;100168.38;;;26.43;60.07
79645;BME280;69117;47.148;18.954;2023-06-10T09:46:48;100160.94;;;25.51;61.36
79645;BME280;69117;47.148;18.954;2023-06-10T09:49:51;100171.06;;;25.10;63.88
79645;BME280;69117;47.148;18.954;2023-06-10T09:52:56;100174.19;;;26.08;63.88
79645;BME280;69117;47.148;18.954;2023-06-10T09:55:57;100168.19;;;26.99;59.39
79645;BME280;69117;47.148;18.954;2023-06-10T09:58:59;100164.13;;;26.03;62.16
79645;BME280;69117;47.148;18.954;2023-06-10T10:02:01;100168.94;;;25.63;63.91
79645;BME280;69117;47.148;18.954;2023-06-10T10:05:03;100164.47;;;27.10;60.32
79645;BME280;69117;47.148;18.954;2023-06-10T10:08:08;100160.66;;;27.38;60.12
79645;BME280;69117;47.148;18.954;2023-06-10T10:11:10;100171.03;;;25.94;61.85
79645;BME280;69117;47.148;18.954;2023-06-10T10:14:13;100163.06;;;25.49;63.25
79645;BME280;69117;47.148;18.954;2023-06-10T10:17:18;100163.00;;;25.99;61.61
79645;BME280;69117;47.148;18.954;2023-06-10T10:20:26;100157.38;;;27.36;57.34
79645;BME280;69117;47.148;18.954;2023-06-10T10:23:41;100154.38;;;28.33;53.68
79645;BME280;69117;47.148;18.954;2023-06-10T10:26:46;100152.84;;;28.83;51.19
79645;BME280;69117;47.148;18.954;2023-06-10T10:29:52;100148.66;;;28.29;49.91
79645;BME280;69117;47.148;18.954;2023-06-10T10:32:57;100140.38;;;28.97;51.71
79645;BME280;69117;47.148;18.954;2023-06-10T10:36:09;100139.38;;;26.93;53.39
79645;BME280;69117;47.148;18.954;2023-06-10T10:39:11;100137.63;;;28.67;51.14
79645;BME280;69117;47.148;18.954;2023-06-10T10:42:13;100125.25;;;27.66;49.43
79645;BME280;69117;47.148;18.954;2023-06-10T10:45:16;100125.84;;;26.66;51.99
79645;BME280;69117;47.148;18.954;2023-06-10T10:48:18;100131.34;;;27.40;52.49
79645;BME280;69117;47.148;18.954;2023-06-10T10:51:20;100130.22;;;26.01;52.55
79645;BME280;69117;47.148;18.954;2023-06-10T10:54:28;100127.91;;;26.10;56.65
79645;BME280;69117;47.148;18.954;2023-06-10T10:57:31;100127.59;;;25.84;56.57
79645;BME280;69117;47.148;18.954;2023-06-10T11:00:33;100130.94;;;25.74;57.28
79645;BME280;69117;47.148;18.954;2023-06-10T11:03:43;100124.28;;;25.09;57.79
79645;BME280;69117;47.148;18.954;2023-06-10T11:06:53;100127.47;;;24.32;62.66
79645;BME280;69117;47.148;18.954;2023-06-10T11:09:59;100126.84;;;24.13;68.04
79645;BME280;69117;47.148;18.954;2023-06-10T11:13:09;100125.47;;;23.99;71.03
79645;BME280;69117;47.148;18.954;2023-06-10T11:16:19;100116.00;;;23.96;70.35
79645;BME280;69117;47.148;18.954;2023-06-10T11:19:37;100116.47;;;23.82;73.28
79645;BME280;69117;47.148;18.954;2023-06-10T11:23:01;100127.47;;;24.32;70.59
79645;BME280;69117;47.148;18.954;2023-06-10T11:29:10;100125.00;;;25.55;65.60
79645;BME280;69117;47.148;18.954;2023-06-10T11:32:12;100115.41;;;26.53;60.76
79645;BME280;69117;47.148;18.954;2023-06-10T11:35:14;100110.44;;;27.36;56.05
79645;BME280;69117;47.148;18.954;2023-06-10T11:38:15;100106.09;;;27.82;50.78
79645;BME280;69117;47.148;18.954;2023-06-10T11:41:18;100102.56;;;29.27;49.17
79645;BME280;69117;47.148;18.954;2023-06-10T11:44:20;100106.31;;;29.61;46.09
79645;BME280;69117;47.148;18.954;2023-06-10T11:47:21;100105.22;;;29.57;47.12
79645;BME280;69117;47.148;18.954;2023-06-10T11:50:33;100097.38;;;28.79;50.32
79645;BME280;69117;47.148;18.954;2023-06-10T11:53:35;100098.50;;;27.84;51.38
79645;BME280;69117;47.148;18.954;2023-06-10T11:56:36;100103.31;;;25.72;60.81
79645;BME280;69117;47.148;18.954;2023-06-10T11:59:38;100095.75;;;24.68;64.60
79645;BME280;69117;47.148;18.954;2023-06-10T12:02:41;100100.03;;;23.60;67.78
79645;BME280;69117;47.148;18.954;2023-06-10T12:06:12;100095.72;;;23.47;71.17
79645;BME280;69117;47.148;18.954;2023-06-10T12:12:27;100086.94;;;23.16;70.06
79645;BME280;69117;47.148;18.954;2023-06-10T12:15:28;100095.84;;;23.40;72.35
79645;BME280;69117;47.148;18.954;2023-06-10T12:18:30;100088.69;;;23.46;68.71
79645;BME280;69117;47.148;18.954;2023-06-10T12:21:33;100090.94;;;24.13;67.51
79645;BME280;69117;47.148;18.954;2023-06-10T12:24:44;100099.69;;;23.91;68.67
79645;BME280;69117;47.148;18.954;2023-06-10T12:27:53;100081.78;;;24.02;67.61
79645;BME280;69117;47.148;18.954;2023-06-10T12:31:06;100089.00;;;23.96;67.54
79645;BME280;69117;47.148;18.954;2023-06-10T12:34:09;100082.78;;;24.53;66.69
79645;BME280;69117;47.148;18.954;2023-06-10T12:37:12;100082.84;;;25.21;63.71
79645;BME280;69117;47.148;18.954;2023-06-10T12:40:18;100083.47;;;25.45;62.71
79645;BME280;69117;47.148;18.954;2023-06-10T12:43:20;100072.84;;;26.53;58.23
79645;BME280;69117;47.148;18.954;2023-06-10T12:46:22;100060.06;;;27.13;55.90
79645;BME280;69117;47.148;18.954;2023-06-10T12:49:24;100064.19;;;29.13;50.93
79645;BME280;69117;47.148;18.954;2023-06-10T12:52:27;100054.69;;;28.49;51.25
79645;BME280;69117;47.148;18.954;2023-06-10T12:55:29;100050.59;;;28.46;52.03
79645;BME280;69117;47.148;18.954;2023-06-10T12:58:31;100056.47;;;29.66;49.75
79645;BME280;69117;47.148;18.954;2023-06-10T13:01:32;100043.38;;;30.23;47.41
79645;BME280;69117;47.148;18.954;2023-06-10T13:04:35;100027.16;;;30.42;45.54
79645;BME280;69117;47.148;18.954;2023-06-10T13:07:37;100038.03;;;29.32;49.59
79645;BME280;69117;47.148;18.954;2023-06-10T13:10:39;100030.69;;;29.28;50.00
79645;BME280;69117;47.148;18.954;2023-06-10T13:13:41;100035.59;;;29.31;45.54
79645;BME280;69117;47.148;18.954;2023-06-10T13:16:42;100033.19;;;27.54;49.62
79645;BME280;69117;47.148;18.954;2023-06-10T13:19:46;100031.69;;;27.78;50.70
79645;BME280;69117;47.148;18.954;2023-06-10T13:22:48;100034.97;;;26.90;53.67
79645;BME280;69117;47.148;18.954;2023-06-10T13:25:50;100025.03;;;28.52;47.61
79645;BME280;69117;47.148;18.954;2023-06-10T13:28:52;100024.19;;;28.37;46.76
79645;BME280;69117;47.148;18.954;2023-06-10T13:31:54;100022.31;;;28.68;47.30
79645;BME280;69117;47.148;18.954;2023-06-10T13:34:55;100025.88;;;27.64;48.87
79645;BME280;69117;47.148;18.954;2023-06-10T13:37:58;100011.91;;;27.93;47.66
79645;BME280;69117;47.148;18.954;2023-06-10T13:41:00;100012.91;;;27.72;49.78
79645;BME280;69117;47.148;18.954;2023-06-10T13:44:05;100004.56;;;28.04;54.86
79645;BME280;69117;47.148;18.954;2023-06-10T13:47:07;100013.38;;;27.11;57.72
79645;BME280;69117;47.148;18.954;2023-06-10T13:50:09;100024.38;;;27.31;56.40
79645;BME280;69117;47.148;18.954;2023-06-10T13:53:12;100016.63;;;26.70;58.65
79645;BME280;69117;47.148;18.954;2023-06-10T13:56:14;100007.41;;;26.39;59.76
79645;BME280;69117;47.148;18.954;2023-06-10T13:59:15;100013.81;;;26.28;61.55
79645;BME280;69117;47.148;18.954;2023-06-10T14:02:17;100017.44;;;26.71;57.83
79645;BME280;69117;47.148;18.954;2023-06-10T14:05:19;100022.91;;;26.76;56.99
79645;BME280;69117;47.148;18.954;2023-06-10T14:08:21;100019.34;;;26.43;57.48
79645;BME280;69117;47.148;18.954;2023-06-10T14:11:22;100017.53;;;25.73;60.57
79645;BME280;69117;47.148;18.954;2023-06-10T14:14:24;100023.38;;;25.21;62.78
79645;BME280;69117;47.148;18.954;2023-06-10T14:17:26;100017.00;;;24.76;66.65
79645;BME280;69117;47.148;18.954;2023-06-10T14:20:27;100020.63;;;24.36;66.54
79645;BME280;69117;47.148;18.954;2023-06-10T14:23:32;100017.94;;;23.79;72.12
79645;BME280;69117;47.148;18.954;2023-06-10T14:26:34;100013.91;;;23.18;77.73
79645;BME280;69117;47.148;18.954;2023-06-10T14:29:36;100017.72;;;22.39;78.66
79645;BME280;69117;47.148;18.954;2023-06-10T14:32:37;100027.66;;;21.90;44.11
79645;BME280;69117;47.148;18.954;2023-06-10T14:35:39;100016.47;;;21.75;28.26
79645;BME280;69117;47.148;18.954;2023-06-10T14:38:41;100015.59;;;21.63;30.94
79645;BME280;69117;47.148;18.954;2023-06-10T14:41:42;100000.34;;;21.75;48.55
79645;BME280;69117;47.148;18.954;2023-06-10T14:44:44;100000.38;;;21.87;49.13
79645;BME280;69117;47.148;18.954;2023-06-10T14:47:46;99999.47;;;21.93;48.96
79645;BME280;69117;47.148;18.954;2023-06-10T14:50:48;100010.38;;;22.16;49.70
79645;BME280;69117;47.148;18.954;2023-06-10T14:53:52;100005.22;;;22.80;49.55
79645;BME280;69117;47.148;18.954;2023-06-10T14:56:54;100000.81;;;22.98;49.57
79645;BME280;69117;47.148;18.954;2023-06-10T14:59:55;100007.81;;;23.22;49.05
79645;BME280;69117;47.148;18.954;2023-06-10T15:02:57;100010.84;;;23.38;48.46
79645;BME280;69117;47.148;18.954;2023-06-10T15:05:59;100015.56;;;26.12;48.83
79645;BME280;69117;47.148;18.954;2023-06-10T15:09:02;100012.97;;;27.92;70.38
79645;BME280;69117;47.148;18.954;2023-06-10T15:12:04;100016.13;;;27.63;68.41
79645;BME280;69117;47.148;18.954;2023-06-10T15:15:07;100026.03;;;26.58;75.93
79645;BME280;69117;47.148;18.954;2023-06-10T15:18:09;100035.25;;;25.03;79.68
79645;BME280;69117;47.148;18.954;2023-06-10T15:21:11;100037.06;;;22.72;88.51
79645;BME280;69117;47.148;18.954;2023-06-10T15:24:13;100036.72;;;21.78;62.96
79645;BME280;69117;47.148;18.954;2023-06-10T15:27:15;100036.16;;;21.14;33.55
79645;BME280;69117;47.148;18.954;2023-06-10T15:30:16;100037.13;;;20.76;46.24
79645;BME280;69117;47.148;18.954;2023-06-10T15:33:18;100037.28;;;20.49;46.65
79645;BME280;69117;47.148;18.954;2023-06-10T15:36:19;100034.19;;;20.52;47.22
79645;BME280;69117;47.148;18.954;2023-06-10T15:39:21;100039.97;;;20.49;47.61
79645;BME280;69117;47.148;18.954;2023-06-10T15:42:23;100033.94;;;20.61;47.72
79645;BME280;69117;47.148;18.954;2023-06-10T15:45:25;100030.47;;;20.47;47.80
79645;BME280;69117;47.148;18.954;2023-06-10T15:48:27;100038.69;;;20.58;47.95
79645;BME280;69117;47.148;18.954;2023-06-10T15:51:28;100036.81;;;20.59;48.08
79645;BME280;69117;47.148;18.954;2023-06-10T15:54:30;100026.53;;;20.49;48.11
79645;BME280;69117;47.148;18.954;2023-06-10T15:57:32;100022.63;;;20.45;48.21